Cazenovia, Illinois
Current Conditions -  °F | °C
As of 6:55 AM on Monday 20 Oct 2014 (Local Time) from KC75 Reporting Station
Clear Clear  
Wind Chill: 47°   Ceiling: Unl
Heat Index: 50°   Visibility: 10mi
Dew Point: 45°   Wind: 8mph
Humidity: 83%   Direction: 260°W
Pressure: 29.86"   Gusts: NA
Location:  40.8772°N, 89.3866°W
Report Text: KC75 201155Z AUTO 26007KT 10SM CLR 10/07 A2986 RMK AO2 T00990071 10115 20096
Loading
Personal Weather Stations






























Interactive Weather Map
Tropical Storm Tracking
New forecast layout! Learn more

10-Day Weather Forecast

Advertisements
Track Severe Weather on mobile